KMOX/MOX METAR and TAF weather

Enter ICAO airport designator
Station Type Date Time Source
KMOX METAR 2023/02/05 13:35 UTC NOAA

KMOX 051335Z AUTO 33011KT 10SM M11/M13 A2999 RMK AO2


Station Type Date Time Source
KMOX Decoded METAR 2023/02/05 13:35 UTC NOAA

Morris, Morris Municipal Airport, MN, United States (KMOX) 45-34N 095-58W
Feb 05, 2023 - 08:35 AM EST / 2023.02.05 1335 UTC
Wind: from the NNW (330 degrees) at 13 MPH (11 KT):0
Visibility: 10 mile(s):0
Temperature: 12 F (-11 C)
Windchill: -2 F (-19 C):1
Dew Point: 8 F (-13 C)
Relative Humidity: 85%
Pressure (altimeter): 29.99 in. Hg (1015 hPa)
ob: KMOX 051335Z AUTO 33011KT 10SM M11/M13 A2999 RMK AO2
cycle: 13

Station Type Date Time Source
KMOX TAF UTC NOAA

Error!

Example: see airport list